Time;durP1;ratioP1;P1;durP2;ratioP2;P2;SDS_P1;SDS_P2;PMS_P1;PMS_P2;Temp;Humidity;BMP_temperature;BMP_pressure;BME280_temperature;BME280_humidity;BME280_pressure;Samples;Min_cycle;Max_cycle;Signal;HPM_P1;HPM_P2
2021/11/08 00:01:06;;;;;;;9.88;6.60;;;;;;;4.86;79.34;98495.28;5073200;28;20036;-59
2021/11/08 00:03:35;;;;;;;9.52;6.13;;;;;;;4.88;78.74;98480.53;5066590;28;20040;-59
2021/11/08 00:06:04;;;;;;;9.48;6.32;;;;;;;4.92;79.24;98474.22;5064332;28;20024;-59
2021/11/08 00:08:29;;;;;;;9.73;6.50;;;;;;;4.90;79.79;98471.75;5072225;28;20028;-59
2021/11/08 00:10:55;;;;;;;10.77;6.57;;;;;;;4.82;79.58;98451.72;5069330;28;20093;-59
2021/11/08 00:13:21;;;;;;;10.25;6.90;;;;;;;4.24;79.92;98363.25;5065197;28;20024;-59
2021/11/08 00:15:58;;;;;;;11.27;6.65;;;;;;;4.53;80.24;98445.28;5065952;28;20493;-59
2021/11/08 00:18:37;;;;;;;10.52;6.63;;;;;;;4.53;80.60;98440.94;5055293;28;20414;-59
2021/11/08 00:21:02;;;;;;;10.77;7.03;;;;;;;4.46;80.22;98436.34;5069312;28;20068;-59
2021/11/08 00:23:28;;;;;;;10.50;7.07;;;;;;;4.19;80.69;98433.03;5065076;28;20691;-60
2021/11/08 00:25:55;;;;;;;11.40;7.18;;;;;;;4.25;81.42;98449.81;5070795;28;20031;-59
2021/11/08 00:28:21;;;;;;;10.07;6.50;;;;;;;4.28;82.35;98433.34;5067246;28;20036;-59
2021/11/08 00:30:47;;;;;;;11.07;6.97;;;;;;;4.41;81.95;98450.34;5063931;28;20043;-58
2021/11/08 00:33:17;;;;;;;10.02;6.22;;;;;;;4.40;81.76;98435.03;5063177;28;20821;-59
2021/11/08 00:35:48;;;;;;;10.63;6.20;;;;;;;4.31;81.96;98413.34;5064860;28;20024;-59
2021/11/08 00:38:14;;;;;;;11.40;6.72;;;;;;;4.61;81.67;98448.09;5064618;28;20032;-59
2021/11/08 00:40:40;;;;;;;10.93;6.40;;;;;;;4.61;81.58;98441.19;5070222;28;20035;-59
2021/11/08 00:43:06;;;;;;;9.30;5.78;;;;;;;4.60;82.39;98438.75;5071820;28;20028;-59
2021/11/08 00:45:32;;;;;;;9.18;6.05;;;;;;;4.52;81.78;98428.97;5056123;28;20089;-59
2021/11/08 00:47:58;;;;;;;11.20;6.63;;;;;;;4.54;81.72;98428.88;5066171;28;20115;-59
2021/11/08 00:50:24;;;;;;;10.35;6.57;;;;;;;4.20;81.43;98365.22;5062017;28;20370;-59
2021/11/08 00:52:50;;;;;;;11.30;7.20;;;;;;;4.50;80.78;98410.25;5064791;28;20036;-59
2021/11/08 00:55:16;;;;;;;11.75;8.00;;;;;;;4.34;81.78;98423.41;5071355;28;20036;-60
2021/11/08 00:57:47;;;;;;;11.80;7.05;;;;;;;4.30;82.30;98414.25;5070523;28;20036;-59
2021/11/08 01:00:15;;;;;;;11.60;7.00;;;;;;;4.28;82.90;98441.06;5072131;28;20016;-59
2021/11/08 01:02:41;;;;;;;9.98;6.65;;;;;;;4.17;84.44;98450.34;5064742;28;20078;-60
2021/11/08 01:05:10;;;;;;;9.45;6.10;;;;;;;4.39;86.49;98435.97;5069201;28;20115;-59
2021/11/08 01:07:35;;;;;;;8.95;5.53;;;;;;;4.46;85.59;98424.28;5073105;28;20345;-59
2021/11/08 01:10:03;;;;;;;9.70;5.75;;;;;;;4.07;85.63;98366.19;5066890;28;20304;-59
2021/11/08 01:12:28;;;;;;;9.18;5.30;;;;;;;4.54;85.14;98426.31;5068291;28;20028;-59
2021/11/08 01:14:54;;;;;;;7.97;4.70;;;;;;;4.66;85.38;98430.56;5065063;28;20335;-59
2021/11/08 01:17:21;;;;;;;7.60;4.40;;;;;;;4.88;85.83;98424.66;5069448;28;20035;-60
2021/11/08 01:19:47;;;;;;;10.48;4.30;;;;;;;4.92;85.37;98417.53;5070398;28;20028;-59
2021/11/08 01:22:17;;;;;;;8.15;4.57;;;;;;;5.06;84.90;98406.22;5070210;28;20063;-59
2021/11/08 01:24:51;;;;;;;7.82;4.00;;;;;;;5.19;84.28;98405.16;5069307;28;20078;-60
2021/11/08 01:27:16;;;;;;;8.40;4.25;;;;;;;5.16;84.13;98374.44;5068226;28;20097;-59
2021/11/08 01:29:42;;;;;;;10.35;5.00;;;;;;;5.32;85.21;98371.53;5098042;27;20020;-59
2021/11/08 01:32:08;;;;;;;8.18;4.70;;;;;;;5.35;85.07;98355.84;5067746;28;20778;-58
2021/11/08 01:34:33;;;;;;;10.35;4.22;;;;;;;5.29;84.28;98330.50;5068064;28;20416;-59
2021/11/08 01:37:00;;;;;;;7.78;4.80;;;;;;;5.41;83.94;98336.50;5055049;28;20032;-59
2021/11/08 01:39:34;;;;;;;7.45;4.00;;;;;;;5.34;83.92;98336.13;5055890;28;20020;-58
2021/11/08 01:42:03;;;;;;;7.90;4.20;;;;;;;5.33;84.11;98328.50;5070568;28;20419;-59
2021/11/08 01:44:29;;;;;;;8.10;4.60;;;;;;;5.43;85.15;98334.63;5072150;28;20482;-59
2021/11/08 01:46:59;;;;;;;6.57;3.95;;;;;;;5.45;86.08;98324.19;5067117;28;20024;-60
2021/11/08 01:49:25;;;;;;;7.35;4.43;;;;;;;5.46;85.45;98334.38;5070388;28;20584;-57
2021/11/08 01:51:51;;;;;;;7.28;4.57;;;;;;;5.15;85.23;98268.91;5058507;28;20028;-60
2021/11/08 01:54:17;;;;;;;7.57;4.43;;;;;;;5.50;85.67;98325.47;5072786;28;20036;-57
2021/11/08 01:56:45;;;;;;;7.20;4.03;;;;;;;5.52;84.10;98315.03;5054626;28;20122;-58
2021/11/08 01:59:11;;;;;;;7.45;4.70;;;;;;;5.52;83.92;98307.28;5062972;28;20380;-58
2021/11/08 02:01:37;;;;;;;7.50;4.10;;;;;;;5.62;83.89;98313.34;5067559;28;20058;-60
2021/11/08 02:04:03;;;;;;;7.30;4.28;;;;;;;5.32;82.80;98259.84;5063130;28;20105;-59
2021/11/08 02:06:28;;;;;;;7.28;4.22;;;;;;;5.61;83.00;98314.31;5074477;28;20104;-60
2021/11/08 02:08:53;;;;;;;6.70;3.90;;;;;;;5.62;82.42;98318.50;5065259;28;20108;-58
2021/11/08 02:11:21;;;;;;;7.72;4.22;;;;;;;5.64;81.90;98300.34;5060517;28;20033;-60
2021/11/08 02:13:50;;;;;;;7.90;3.97;;;;;;;5.39;80.97;98242.97;5061177;28;20035;-60
2021/11/08 02:16:16;;;;;;;8.32;3.90;;;;;;;5.81;79.30;98296.44;5061390;28;20046;-60
2021/11/08 02:18:42;;;;;;;6.72;4.10;;;;;;;5.85;77.81;98290.91;5067112;28;20032;-60
2021/11/08 02:21:10;;;;;;;7.03;3.53;;;;;;;5.83;77.12;98274.72;5069142;28;20116;-59
2021/11/08 02:23:37;;;;;;;6.13;3.35;;;;;;;5.97;76.22;98282.22;5068043;28;20024;-60
2021/11/08 02:26:06;;;;;;;7.50;3.88;;;;;;;6.02;76.04;98291.34;5044810;28;20028;-59
2021/11/08 02:28:31;;;;;;;7.22;3.92;;;;;;;5.79;76.08;98226.91;5060623;28;20973;-59
2021/11/08 02:30:58;;;;;;;6.32;3.38;;;;;;;5.99;75.26;98256.28;5064791;28;20035;-60
2021/11/08 02:33:27;;;;;;;6.57;3.80;;;;;;;5.71;75.34;98216.38;5063780;28;20105;-59
2021/11/08 02:35:54;;;;;;;6.57;3.25;;;;;;;6.02;74.98;98261.19;5064765;28;20028;-59
2021/11/08 02:38:27;;;;;;;8.38;3.47;;;;;;;5.89;75.73;98261.31;5065256;28;20058;-59
2021/11/08 02:40:55;;;;;;;7.57;3.60;;;;;;;5.91;76.76;98285.28;5062534;28;20056;-59
2021/11/08 02:43:22;;;;;;;7.88;3.47;;;;;;;5.58;77.08;98238.00;5063702;28;20033;-59
2021/11/08 02:45:51;;;;;;;6.47;3.22;;;;;;;6.16;74.01;98299.59;5049284;28;20032;-59
2021/11/08 02:48:17;;;;;;;5.95;2.90;;;;;;;6.19;74.13;98280.47;5064017;28;20599;-59
2021/11/08 02:50:43;;;;;;;5.55;2.92;;;;;;;5.85;74.16;98226.41;5067094;28;20031;-59
2021/11/08 02:53:13;;;;;;;6.78;3.58;;;;;;;6.18;77.70;98254.78;5064087;28;20046;-59
2021/11/08 02:55:40;;;;;;;6.50;3.50;;;;;;;6.31;76.74;98261.38;5063304;28;20079;-60
2021/11/08 02:58:06;;;;;;;6.18;3.30;;;;;;;6.22;77.83;98243.25;5064960;28;20051;-59
2021/11/08 03:00:31;;;;;;;8.00;3.20;;;;;;;6.17;79.46;98228.16;5063912;28;20040;-59
2021/11/08 03:02:58;;;;;;;6.63;3.70;;;;;;;6.07;79.04;98240.97;5058795;28;20047;-58
2021/11/08 03:05:35;;;;;;;6.70;3.40;;;;;;;6.13;78.07;98237.06;5070961;28;20032;-57
2021/11/08 03:08:03;;;;;;;7.18;3.10;;;;;;;6.08;77.96;98241.81;5062281;28;20033;-60
2021/11/08 03:10:30;;;;;;;11.02;3.40;;;;;;;6.15;78.29;98251.53;5072369;28;20028;-60
2021/11/08 03:12:58;;;;;;;5.97;3.08;;;;;;;6.17;78.77;98246.22;5068584;28;20032;-58
2021/11/08 03:18:08;;;;;;;7.50;3.67;;;;;;;5.94;79.17;98254.03;5064541;28;20044;-58
2021/11/08 03:20:34;;;;;;;6.22;3.20;;;;;;;5.90;79.74;98239.75;5068552;28;20023;-57
2021/11/08 03:23:04;;;;;;;6.20;3.40;;;;;;;5.95;80.24;98247.97;5071872;28;20041;-58
2021/11/08 03:27:59;;;;;;;6.20;3.15;;;;;;;5.88;80.37;98240.84;5068572;28;20224;-58
2021/11/08 03:30:34;;;;;;;7.15;3.40;;;;;;;5.89;80.86;98242.44;5070981;28;20025;-58
2021/11/08 03:32:59;;;;;;;6.30;3.42;;;;;;;5.71;80.90;98243.00;5051251;28;20078;-58
2021/11/08 03:35:26;;;;;;;6.55;3.25;;;;;;;5.64;80.64;98235.84;5058641;28;20044;-58
2021/11/08 03:37:53;;;;;;;5.95;3.13;;;;;;;5.52;79.72;98242.81;5069852;28;20032;-58
2021/11/08 03:40:21;;;;;;;6.97;3.30;;;;;;;5.29;79.08;98208.53;5067769;28;20147;-58
2021/11/08 03:42:48;;;;;;;5.93;3.05;;;;;;;5.20;79.83;98197.19;5075734;28;20036;-58
2021/11/08 03:45:14;;;;;;;5.55;2.97;;;;;;;5.44;79.69;98252.91;5052706;28;20177;-59
2021/11/08 03:47:40;;;;;;;6.38;3.25;;;;;;;5.18;80.11;98205.06;5074439;28;20840;-58
2021/11/08 03:50:08;;;;;;;7.68;3.40;;;;;;;5.20;80.15;98205.75;5072585;28;20345;-58
2021/11/08 03:52:34;;;;;;;5.20;2.78;;;;;;;5.34;80.79;98239.94;5072436;28;20143;-58
2021/11/08 03:55:00;;;;;;;7.28;3.20;;;;;;;5.01;80.31;98216.66;5073266;28;20889;-58
2021/11/08 03:57:27;;;;;;;6.45;3.53;;;;;;;4.97;81.08;98246.19;5077447;28;20083;-58
2021/11/08 03:59:53;;;;;;;6.28;3.50;;;;;;;4.81;81.33;98241.38;5080796;28;20028;-58
2021/11/08 04:02:18;;;;;;;7.68;4.00;;;;;;;4.76;79.62;98224.66;5068502;28;20111;-58
2021/11/08 04:04:44;;;;;;;6.35;3.83;;;;;;;4.92;79.87;98250.88;5069114;28;20195;-58
2021/11/08 04:07:09;;;;;;;7.38;3.75;;;;;;;4.86;79.00;98230.75;5077583;28;20638;-58
2021/11/08 04:09:35;;;;;;;7.18;3.80;;;;;;;4.70;81.14;98243.97;5053945;28;20103;-59
2021/11/08 04:12:00;;;;;;;8.15;3.80;;;;;;;4.52;80.31;98260.81;5063662;28;20067;-58
2021/11/08 04:14:26;;;;;;;7.38;4.00;;;;;;;4.51;80.43;98269.44;5066339;28;20032;-58
2021/11/08 04:16:52;;;;;;;6.97;4.10;;;;;;;4.45;80.18;98257.06;5077335;28;20037;-58
2021/11/08 04:19:19;;;;;;;8.02;3.88;;;;;;;4.54;80.72;98269.22;5065013;28;20113;-58
2021/11/08 04:21:44;;;;;;;6.85;3.83;;;;;;;4.16;80.77;98206.81;5077087;28;20040;-58
2021/11/08 04:24:10;;;;;;;7.78;3.90;;;;;;;4.41;80.34;98272.72;5070374;28;20040;-58
2021/11/08 04:26:37;;;;;;;7.60;4.10;;;;;;;4.34;80.15;98258.66;5071239;28;20031;-58
2021/11/08 04:29:04;;;;;;;7.50;4.18;;;;;;;4.21;80.46;98276.75;5068283;28;20060;-58
2021/11/08 04:31:34;;;;;;;7.47;3.95;;;;;;;4.04;80.36;98252.28;5070203;28;20861;-58
2021/11/08 04:34:05;;;;;;;7.43;4.32;;;;;;;4.29;80.47;98285.69;5078413;28;20035;-58
2021/11/08 04:42:13;;;;;;;8.68;3.65;;;;;;;4.19;79.90;98290.69;5069487;28;20097;-58
2021/11/08 05:22:28;;;;;;;8.77;4.28;;;;;;;3.59;81.92;98244.38;5071836;28;20039;-58
2021/11/08 05:30:10;;;;;;;9.82;4.25;;;;;;;3.74;82.30;98301.63;5074170;28;20119;-58
2021/11/08 05:32:38;;;;;;;8.55;4.35;;;;;;;3.83;82.16;98308.69;5067251;28;20539;-58
2021/11/08 05:35:06;;;;;;;18.52;12.18;;;;;;;3.66;82.29;98307.28;5061388;28;20139;-58
2021/11/08 05:37:32;;;;;;;22.75;15.57;;;;;;;3.45;82.33;98275.41;5065131;28;20715;-58
2021/11/08 05:40:06;;;;;;;23.83;16.50;;;;;;;3.45;81.55;98268.50;5056678;28;20695;-58
2021/11/08 05:42:32;;;;;;;19.63;12.38;;;;;;;3.72;82.18;98325.78;5071513;28;20031;-59
2021/11/08 05:44:59;;;;;;;16.45;9.70;;;;;;;3.72;82.12;98328.34;5072052;28;20044;-58
2021/11/08 05:47:25;;;;;;;13.18;7.55;;;;;;;3.63;81.80;98343.53;5071610;28;20102;-58
2021/11/08 05:49:51;;;;;;;11.30;6.22;;;;;;;3.61;81.78;98347.09;5074790;28;20663;-58
2021/11/08 05:52:17;;;;;;;13.57;5.63;;;;;;;3.30;81.68;98302.97;5071330;28;20039;-57
2021/11/08 05:54:44;;;;;;;9.45;5.20;;;;;;;3.39;81.60;98311.78;5066925;28;20036;-58
2021/11/08 06:52:03;;;;;;;16.10;7.13;;;;;;;3.42;82.60;98396.41;5056894;28;20032;-59
2021/11/08 06:54:30;;;;;;;16.83;8.38;;;;;;;3.21;82.35;98366.13;5033098;28;20062;-59
2021/11/08 06:57:00;;;;;;;31.83;8.52;;;;;;;3.15;82.17;98370.84;5052083;28;20055;-59
2021/11/08 06:59:27;;;;;;;19.35;7.78;;;;;;;3.55;82.14;98419.53;5070736;28;20093;-59
2021/11/08 07:01:53;;;;;;;18.25;7.85;;;;;;;3.58;82.46;98421.91;5066113;28;20055;-56
2021/11/08 07:04:20;;;;;;;22.55;7.60;;;;;;;3.62;82.60;98419.00;5060698;28;20342;-58
2021/11/08 07:06:45;;;;;;;13.80;6.82;;;;;;;3.55;83.25;98412.63;5068820;28;20078;-59
2021/11/08 07:09:12;;;;;;;30.58;9.32;;;;;;;3.26;83.04;98358.91;5071376;28;20118;-59
2021/11/08 07:11:38;;;;;;;18.48;6.63;;;;;;;3.63;83.49;98406.97;5063402;28;20082;-59
2021/11/08 07:14:05;;;;;;;14.57;5.55;;;;;;;3.64;83.06;98422.28;5064909;28;20035;-59
2021/11/08 07:16:31;;;;;;;17.42;6.22;;;;;;;3.61;83.27;98431.97;5089927;28;20398;-59
2021/11/08 07:18:56;;;;;;;16.23;6.35;;;;;;;3.53;84.14;98457.38;5072449;28;20036;-59
2021/11/08 07:21:22;;;;;;;16.55;6.18;;;;;;;3.53;83.95;98454.81;5064525;28;20028;-59
2021/11/08 07:23:47;;;;;;;18.65;6.38;;;;;;;3.53;83.63;98458.19;5060654;28;20039;-59
2021/11/08 07:26:12;;;;;;;21.42;6.50;;;;;;;3.59;83.99;98457.78;5068419;28;20052;-59
2021/11/08 07:28:40;;;;;;;13.52;5.05;;;;;;;3.41;83.69;98425.59;5076713;28;20667;-58
2021/11/08 07:31:05;;;;;;;10.90;4.97;;;;;;;3.66;83.68;98442.75;5072835;28;20786;-59
2021/11/08 07:33:31;;;;;;;15.70;5.07;;;;;;;3.62;83.96;98429.28;5070780;28;20033;-59
2021/11/08 07:35:58;;;;;;;13.00;5.00;;;;;;;3.74;83.81;98448.22;5063007;28;20036;-59
2021/11/08 07:38:23;;;;;;;10.10;5.65;;;;;;;3.56;84.02;98409.16;5070351;28;20036;-59
2021/11/08 07:40:49;;;;;;;9.75;4.90;;;;;;;3.79;83.61;98453.84;5075277;28;20485;-58
2021/11/08 07:43:14;;;;;;;12.55;5.38;;;;;;;3.53;84.11;98450.47;5066945;28;20797;-59
2021/11/08 07:45:40;;;;;;;13.57;5.40;;;;;;;3.59;85.25;98459.53;5064680;28;20076;-59
2021/11/08 07:48:06;;;;;;;11.00;4.97;;;;;;;3.71;85.33;98458.69;5066536;28;20032;-60
2021/11/08 07:50:32;;;;;;;14.75;5.30;;;;;;;3.62;85.35;98465.28;5066920;28;21457;-59
2021/11/08 07:52:57;;;;;;;11.77;5.65;;;;;;;3.59;85.48;98468.06;5069528;28;20040;-60
2021/11/08 07:55:23;;;;;;;16.35;6.47;;;;;;;3.71;85.61;98470.75;5057797;28;20589;-59
2021/11/08 07:57:48;;;;;;;12.35;5.13;;;;;;;3.81;85.54;98467.41;5066250;28;20081;-60
2021/11/08 08:00:14;;;;;;;17.73;6.82;;;;;;;3.82;84.62;98463.91;5068455;28;20031;-60
2021/11/08 08:02:41;;;;;;;11.35;5.47;;;;;;;3.47;85.35;98412.34;5060787;28;20039;-60
2021/11/08 08:05:06;;;;;;;16.77;5.80;;;;;;;3.87;84.95;98467.91;5069981;28;20174;-59
2021/11/08 08:07:32;;;;;;;13.40;5.75;;;;;;;3.81;85.55;98498.28;5071091;28;20494;-60
2021/11/08 08:09:57;;;;;;;14.07;6.55;;;;;;;3.57;86.34;98475.06;5065969;28;20020;-58
2021/11/08 08:12:23;;;;;;;14.45;5.88;;;;;;;3.74;87.00;98480.81;5067861;28;20067;-59
2021/11/08 08:14:48;;;;;;;17.83;6.88;;;;;;;3.93;86.61;98470.09;5070835;28;20027;-59
2021/11/08 08:17:13;;;;;;;17.77;6.63;;;;;;;4.00;87.18;98477.28;5068008;28;20071;-59
2021/11/08 08:19:40;;;;;;;18.60;6.28;;;;;;;3.86;86.06;98431.09;5064803;28;20040;-60
2021/11/08 08:22:06;;;;;;;12.82;5.78;;;;;;;4.14;86.29;98465.19;5074334;28;20032;-60
2021/11/08 08:24:32;;;;;;;16.08;5.53;;;;;;;4.01;86.24;98436.91;5049706;28;20029;-60
2021/11/08 08:26:59;;;;;;;14.52;5.40;;;;;;;4.11;86.79;98455.94;5057883;28;20016;-60
2021/11/08 08:29:25;;;;;;;10.07;5.38;;;;;;;4.34;87.75;98480.03;5066510;28;20027;-58
2021/11/08 08:31:50;;;;;;;12.63;5.63;;;;;;;4.35;87.03;98471.41;5063863;28;20028;-59
2021/11/08 08:34:17;;;;;;;9.25;5.45;;;;;;;4.37;87.45;98479.81;5069338;28;20024;-59
2021/11/08 08:36:43;;;;;;;9.48;5.20;;;;;;;4.24;87.43;98453.31;5068950;28;20418;-59
2021/11/08 08:39:09;;;;;;;9.48;4.53;;;;;;;4.34;87.77;98489.53;5063252;28;20039;-59
2021/11/08 08:41:35;;;;;;;9.77;4.30;;;;;;;4.05;87.76;98440.91;5065601;28;20040;-60
2021/11/08 08:44:01;;;;;;;11.48;4.85;;;;;;;3.91;88.99;98412.78;5066268;28;20167;-59
2021/11/08 08:46:26;;;;;;;11.45;5.55;;;;;;;4.20;89.92;98445.00;5067669;28;20024;-59
2021/11/08 08:48:53;;;;;;;11.00;4.88;;;;;;;4.40;89.99;98465.94;5053899;28;20028;-59
2021/11/08 08:51:19;;;;;;;11.38;5.45;;;;;;;4.41;89.66;98465.81;5066932;28;20031;-60
2021/11/08 08:53:45;;;;;;;8.98;5.18;;;;;;;4.56;89.70;98501.69;5068751;28;20024;-60
2021/11/08 08:56:10;;;;;;;9.63;5.00;;;;;;;4.61;89.19;98509.91;5065691;28;20037;-60
2021/11/08 08:58:38;;;;;;;9.90;4.93;;;;;;;4.45;89.84;98468.16;5098604;27;20085;-60
2021/11/08 09:01:04;;;;;;;9.45;4.95;;;;;;;4.82;90.58;98523.84;5052957;28;20028;-59
2021/11/08 09:03:29;;;;;;;10.77;5.93;;;;;;;4.96;89.68;98527.16;5069922;28;20058;-59
2021/11/08 09:05:54;;;;;;;8.50;4.97;;;;;;;4.95;88.68;98530.69;5063553;28;20417;-59
2021/11/08 09:08:20;;;;;;;9.30;5.35;;;;;;;4.73;88.12;98503.09;5058783;28;20082;-60
2021/11/08 09:10:46;;;;;;;11.88;5.68;;;;;;;4.97;88.44;98552.00;5068337;28;20024;-60
2021/11/08 09:13:12;;;;;;;10.60;4.20;;;;;;;5.06;86.45;98546.19;5072589;28;20058;-59
2021/11/08 09:15:38;;;;;;;9.50;4.53;;;;;;;5.05;87.09;98548.88;5059150;28;20036;-63
2021/11/08 09:18:04;;;;;;;9.27;4.15;;;;;;;5.02;85.95;98547.34;5064768;28;20036;-60
2021/11/08 09:20:31;;;;;;;9.80;4.50;;;;;;;4.98;86.05;98558.78;5066930;28;20028;-60
2021/11/08 09:22:57;;;;;;;12.77;5.63;;;;;;;5.06;85.32;98556.50;5067025;28;20084;-59
2021/11/08 09:25:24;;;;;;;11.93;4.00;;;;;;;5.13;84.84;98565.44;5070737;28;20028;-60
2021/11/08 09:27:52;;;;;;;12.13;4.60;;;;;;;5.13;85.13;98562.84;5063131;28;20407;-59
2021/11/08 09:30:22;;;;;;;8.32;4.63;;;;;;;5.32;85.45;98580.38;5063501;28;20122;-59
2021/11/08 09:32:47;;;;;;;11.30;5.93;;;;;;;5.51;84.04;98566.13;5062543;27;20498;-60
2021/11/08 09:35:14;;;;;;;10.68;5.68;;;;;;;5.96;83.51;98582.53;5061249;28;20024;-60
2021/11/08 09:37:45;;;;;;;8.88;5.57;;;;;;;6.33;82.16;98578.91;5061748;28;20036;-59
2021/11/08 09:40:18;;;;;;;11.15;5.82;;;;;;;6.59;81.28;98578.63;5046815;28;20029;-59
2021/11/08 09:42:44;;;;;;;13.32;5.80;;;;;;;6.73;81.17;98583.53;5064054;28;20071;-61
2021/11/08 09:45:10;;;;;;;9.68;5.65;;;;;;;6.99;81.54;98586.66;5058713;28;20025;-62
2021/11/08 09:47:38;;;;;;;9.65;5.22;;;;;;;7.42;80.68;98601.28;5059024;28;20185;-61
2021/11/08 09:50:07;;;;;;;9.73;5.55;;;;;;;7.49;79.76;98609.38;5060108;28;20028;-62
2021/11/08 09:52:37;;;;;;;9.30;5.68;;;;;;;7.77;79.64;98620.06;5058088;28;20704;-61
2021/11/08 09:55:03;;;;;;;;;;;;;;;8.00;77.37;98623.34;5079348;28;20107;-61
2021/11/08 09:57:29;;;;;;;8.65;4.63;;;;;;;7.75;78.57;98580.53;5094478;27;19916;-61
2021/11/08 09:59:55;;;;;;;7.82;4.45;;;;;;;8.03;78.95;98636.84;5057768;28;20036;-61
2021/11/08 10:02:20;;;;;;;8.25;4.55;;;;;;;8.14;78.71;98648.91;5060942;28;20031;-61
2021/11/08 10:04:46;;;;;;;7.43;4.32;;;;;;;8.11;79.05;98648.34;5051370;28;20012;-63
2021/11/08 10:07:11;;;;;;;6.57;4.07;;;;;;;8.25;79.09;98658.34;5067395;28;20676;-61
2021/11/08 10:09:38;;;;;;;7.00;3.72;;;;;;;8.39;78.88;98662.38;5041507;28;20239;-61
2021/11/08 10:12:10;;;;;;;6.75;3.33;;;;;;;8.35;78.82;98654.03;5057331;28;20689;-60
2021/11/08 10:14:35;;;;;;;6.10;3.20;;;;;;;8.54;78.29;98650.75;5058282;28;20039;-61
2021/11/08 10:17:01;;;;;;;6.95;3.45;;;;;;;8.71;77.81;98662.25;5055129;28;20154;-61
2021/11/08 10:19:27;;;;;;;6.25;3.40;;;;;;;8.91;76.95;98668.31;5054599;28;20047;-61
2021/11/08 10:21:55;;;;;;;6.68;3.55;;;;;;;8.88;76.67;98670.38;5057538;28;20035;-62
2021/11/08 10:24:30;;;;;;;5.93;3.35;;;;;;;9.04;76.70;98668.09;5054218;28;20036;-60
2021/11/08 10:27:00;;;;;;;7.43;3.50;;;;;;;9.11;76.22;98666.59;5056973;28;20027;-61
2021/11/08 10:29:26;;;;;;;7.68;3.45;;;;;;;9.23;76.31;98677.66;5063921;28;20032;-60
2021/11/08 10:31:54;;;;;;;7.38;3.20;;;;;;;9.24;75.80;98687.91;5061489;28;20051;-62
2021/11/08 10:34:22;;;;;;;8.45;3.20;;;;;;;8.65;75.76;98582.41;5069249;28;20118;-66
2021/11/08 10:36:56;;;;;;;7.18;3.70;;;;;;;9.33;76.22;98688.06;5052873;28;20477;-63
2021/11/08 10:39:22;;;;;;;7.47;3.22;;;;;;;9.42;76.67;98684.66;5066707;28;20557;-63
2021/11/08 10:41:47;;;;;;;7.25;3.35;;;;;;;9.52;76.68;98690.66;5068042;28;20028;-63
2021/11/08 10:44:22;;;;;;;5.82;2.80;;;;;;;9.53;75.91;98700.09;5051106;28;20721;-62
2021/11/08 10:46:58;;;;;;;10.75;3.78;;;;;;;9.28;75.70;98664.28;5054637;28;20046;-64
2021/11/08 10:49:25;;;;;;;9.60;2.97;;;;;;;9.41;75.60;98702.00;5065124;28;20024;-64
2021/11/08 10:51:56;;;;;;;7.47;2.90;;;;;;;9.43;76.02;98709.66;5060210;28;20078;-61
2021/11/08 10:54:31;;;;;;;6.55;2.75;;;;;;;9.45;76.46;98718.13;5064272;28;20021;-63
2021/11/08 10:57:02;;;;;;;6.53;3.03;;;;;;;9.47;75.79;98708.41;5061566;28;20024;-63
2021/11/08 10:59:30;;;;;;;8.25;3.17;;;;;;;9.47;76.24;98713.59;5068760;28;20032;-63
2021/11/08 11:01:58;;;;;;;8.20;3.30;;;;;;;9.29;75.99;98676.31;5057926;28;20052;-63
2021/11/08 11:04:45;;;;;;;8.15;3.80;;;;;;;9.53;75.89;98725.25;5064874;28;20131;-61
2021/11/08 11:07:22;;;;;;;7.22;3.72;;;;;;;9.60;75.33;98724.56;5055150;28;21471;-63
2021/11/08 11:09:49;;;;;;;8.68;4.05;;;;;;;9.39;75.59;98682.34;5062998;28;20017;-63
2021/11/08 11:12:17;;;;;;;8.25;4.18;;;;;;;9.51;75.31;98690.78;5062898;28;20744;-64
2021/11/08 11:15:09;;;;;;;9.27;4.40;;;;;;;9.76;74.96;98728.38;5063644;28;20101;-64
2021/11/08 11:17:42;;;;;;;6.93;4.20;;;;;;;9.74;74.41;98714.72;5064295;28;20047;-64
2021/11/08 11:20:18;;;;;;;9.38;4.07;;;;;;;9.92;74.08;98733.84;5062707;28;20016;-63
2021/11/08 11:22:53;;;;;;;10.00;4.60;;;;;;;9.93;75.10;98730.31;5061248;28;20601;-64
2021/11/08 11:25:21;;;;;;;7.40;4.38;;;;;;;9.87;74.36;98722.25;5053708;28;20024;-63
2021/11/08 11:27:48;;;;;;;9.07;4.72;;;;;;;9.97;73.95;98742.06;5068473;28;20047;-63
2021/11/08 11:30:26;;;;;;;8.07;4.40;;;;;;;10.01;74.58;98737.41;5059702;28;20411;-64
2021/11/08 11:33:27;;;;;;;8.55;4.55;;;;;;;10.15;73.97;98746.56;5063346;28;20417;-62
2021/11/08 11:36:06;;;;;;;7.57;4.53;;;;;;;10.13;73.92;98745.88;5034281;28;20043;-64
2021/11/08 11:39:03;;;;;;;9.20;5.32;;;;;;;10.04;74.35;98755.31;5071056;28;20033;-64
2021/11/08 11:41:31;;;;;;;9.63;5.30;;;;;;;9.90;74.16;98751.34;5071631;28;20031;-64
2021/11/08 11:44:05;;;;;;;8.57;4.85;;;;;;;9.82;74.42;98749.44;5063085;28;20053;-64
2021/11/08 11:46:34;;;;;;;13.02;5.95;;;;;;;9.86;75.02;98746.59;5065503;28;20035;-63
2021/11/08 11:49:03;;;;;;;9.88;5.07;;;;;;;9.73;74.91;98710.47;5061146;28;20028;-63
2021/11/08 11:51:31;;;;;;;8.40;5.27;;;;;;;9.86;74.82;98746.59;5053849;28;20473;-62
2021/11/08 11:53:58;;;;;;;8.85;5.22;;;;;;;9.86;74.38;98738.78;5061449;28;20257;-62
2021/11/08 11:56:25;;;;;;;8.48;5.20;;;;;;;9.82;74.63;98739.06;5064390;28;20234;-62
2021/11/08 11:58:52;;;;;;;8.68;5.05;;;;;;;9.88;74.31;98748.06;5054251;28;20115;-61
2021/11/08 12:01:20;;;;;;;8.90;4.95;;;;;;;9.80;73.58;98711.56;5063851;28;20838;-63
2021/11/08 12:03:46;;;;;;;9.88;4.95;;;;;;;10.00;73.38;98741.78;5063374;28;20031;-63
2021/11/08 12:06:16;;;;;;;7.97;4.93;;;;;;;9.79;73.47;98702.16;5095503;27;20105;-62
2021/11/08 12:08:42;;;;;;;8.98;5.18;;;;;;;10.00;73.90;98738.34;5064537;28;20030;-63
2021/11/08 12:11:09;;;;;;;10.30;4.88;;;;;;;10.02;73.71;98736.47;5101570;27;20503;-63
2021/11/08 12:13:40;;;;;;;7.75;4.63;;;;;;;9.81;73.70;98695.84;5065252;28;20055;-62
2021/11/08 12:16:16;;;;;;;8.88;5.07;;;;;;;10.08;74.03;98735.91;5083965;28;20569;-63
2021/11/08 12:18:42;;;;;;;9.20;4.88;;;;;;;10.07;73.74;98728.25;5062556;28;20044;-63
2021/11/08 12:21:22;;;;;;;8.30;4.55;;;;;;;10.06;74.03;98737.81;5060123;28;20136;-62
2021/11/08 12:23:48;;;;;;;9.55;4.53;;;;;;;10.07;74.06;98726.44;5087286;27;20163;-63
2021/11/08 12:26:23;;;;;;;9.82;4.43;;;;;;;10.08;73.81;98722.91;5065748;28;20024;-63
2021/11/08 12:28:49;;;;;;;7.93;4.30;;;;;;;10.09;73.64;98718.53;5062571;28;20529;-61
2021/11/08 12:31:20;;;;;;;10.23;3.90;;;;;;;10.08;74.06;98729.91;5070074;28;20023;-63
2021/11/08 12:33:58;;;;;;;7.65;4.25;;;;;;;9.98;74.35;98724.69;5045940;28;20032;-61
2021/11/08 12:36:23;;;;;;;8.07;3.97;;;;;;;9.91;74.93;98724.44;5077683;28;20144;-61
2021/11/08 12:38:59;;;;;;;8.07;4.43;;;;;;;9.88;74.08;98716.91;5053745;28;20497;-61
2021/11/08 12:41:29;;;;;;;7.05;4.20;;;;;;;9.95;74.11;98697.22;5057437;28;20028;-61
2021/11/08 12:43:57;;;;;;;10.82;4.97;;;;;;;9.69;74.21;98659.78;5057213;28;20038;-60
2021/11/08 12:46:50;;;;;;;7.57;4.38;;;;;;;10.00;74.24;98707.19;5068095;28;20551;-60
2021/11/08 12:49:21;;;;;;;7.20;4.22;;;;;;;9.97;74.65;98699.69;5062170;28;20055;-60
2021/11/08 12:51:57;;;;;;;9.15;4.22;;;;;;;9.91;74.92;98706.25;5063430;28;20028;-60
2021/11/08 12:54:24;;;;;;;8.68;4.80;;;;;;;9.96;74.91;98705.81;5057443;28;20042;-60
2021/11/08 12:56:51;;;;;;;9.80;5.07;;;;;;;9.87;75.14;98697.06;5069848;28;20077;-61
2021/11/08 12:59:25;;;;;;;8.98;5.63;;;;;;;9.78;74.88;98661.56;5100727;27;20028;-61
2021/11/08 13:01:59;;;;;;;9.52;5.18;;;;;;;9.69;74.97;98652.84;5063551;28;20032;-59
2021/11/08 13:04:32;;;;;;;8.65;5.10;;;;;;;9.87;75.06;98689.28;5054183;28;20055;-60
2021/11/08 13:07:08;;;;;;;10.07;5.40;;;;;;;9.97;75.42;98702.28;5066457;28;20056;-60
2021/11/08 13:09:49;;;;;;;9.50;5.35;;;;;;;9.85;76.17;98704.19;5064934;28;20028;-60
2021/11/08 13:12:31;;;;;;;9.50;5.35;;;;;;;9.75;76.59;98706.81;5060487;28;20026;-60
2021/11/08 13:15:07;;;;;;;8.32;4.95;;;;;;;9.75;76.71;98693.00;5064945;28;20058;-60
2021/11/08 13:17:50;;;;;;;10.27;4.93;;;;;;;9.48;77.06;98652.16;5060240;28;20076;-60
2021/11/08 13:20:18;;;;;;;8.45;4.95;;;;;;;9.74;77.07;98696.53;5063772;28;20024;-60
2021/11/08 13:22:47;;;;;;;9.50;4.93;;;;;;;9.56;77.29;98662.66;5058248;28;20024;-61
2021/11/08 13:25:17;;;;;;;8.68;4.93;;;;;;;9.76;76.99;98697.22;5060318;28;20112;-61
2021/11/08 13:27:44;;;;;;;;;;;;;;;9.82;76.88;98697.50;5061361;28;20124;-59
2021/11/08 13:30:09;;;;;;;7.82;4.47;;;;;;;9.71;77.77;98692.47;5086525;27;19924;-60
2021/11/08 13:32:36;;;;;;;11.07;4.97;;;;;;;9.69;77.45;98690.94;5063195;28;20036;-61